Terminal Aerodrome Forecast
Issued by NWS Buffalo, NY

Home | Current Version | Previous Version | Text Only | Print | Product List | Glossary On
Versions: 1 2 3 4 5 6 7 8 9 10 11 12 13 14 15 16 17 18 19 20 21 22 23 24 25
000
FTUS41 KBUF 201100
TAFART
TAF
KART 201140Z 2012/2112 08003KT P6SM SKC
     FM201600 VRB03KT P6SM VCSH BKN070 BKN250
     FM201800 00000KT 6SM -SHRA SCT040 BKN060
     FM202300 15004KT 4SM SHRA SCT040 OVC050
     FM210900 VRB04KT P6SM VCSH BKN040=

USA.gov is the U.S. government's official web portal to all federal, state and local government web resources and services.